createdAt,value
2023-01-25T00:00:15.949Z,75.25
2023-01-25T00:03:06.502Z,75.60
2023-01-25T00:05:36.236Z,75.71
2023-01-25T00:08:05.753Z,75.64
2023-01-25T00:10:35.130Z,75.97
2023-01-25T00:13:04.415Z,76.05
2023-01-25T00:15:33.902Z,75.72
2023-01-25T00:18:02.994Z,76.24
2023-01-25T00:20:33.723Z,76.64
2023-01-25T00:23:02.830Z,76.18
2023-01-25T00:25:32.230Z,75.95
2023-01-25T00:28:01.380Z,76.42
2023-01-25T00:30:30.904Z,76.71
2023-01-25T00:33:07.796Z,76.67
2023-01-25T00:35:39.885Z,76.43
2023-01-25T00:38:28.742Z,75.55
2023-01-25T00:40:59.848Z,75.45
2023-01-25T00:43:29.274Z,75.69
2023-01-25T00:46:02.998Z,76.25
2023-01-25T00:48:32.394Z,76.62
2023-01-25T00:51:04.619Z,77.56
2023-01-25T00:53:34.092Z,75.89
2023-01-25T00:56:03.822Z,76.00
2023-01-25T00:58:33.109Z,75.62
2023-01-25T01:01:02.574Z,76.50
2023-01-25T01:03:31.819Z,76.36
2023-01-25T01:06:04.772Z,77.04
2023-01-25T01:08:36.861Z,76.43
2023-01-25T01:11:09.089Z,76.07
2023-01-25T01:13:40.233Z,75.86
2023-01-25T01:16:12.482Z,76.51
2023-01-25T01:18:43.541Z,76.60
2023-01-25T01:21:15.641Z,76.17
2023-01-25T01:23:44.911Z,76.22
2023-01-25T01:26:16.374Z,76.47
2023-01-25T01:28:45.595Z,76.32
2023-01-25T01:31:17.224Z,76.57
2023-01-25T01:34:13.350Z,76.03
2023-01-25T01:36:44.689Z,76.23
2023-01-25T01:39:14.005Z,76.25
2023-01-25T01:41:43.430Z,76.62
2023-01-25T01:44:19.378Z,76.16
2023-01-25T01:46:56.244Z,75.84
2023-01-25T01:49:31.669Z,75.91
2023-01-25T01:52:24.115Z,75.74
2023-01-25T01:54:57.983Z,75.78
2023-01-25T01:57:33.342Z,75.26
2023-01-25T02:00:05.308Z,75.84
2023-01-25T02:02:43.048Z,74.81
2023-01-25T02:05:19.488Z,75.31
2023-01-25T02:07:54.951Z,76.37
2023-01-25T02:10:25.481Z,76.30
2023-01-25T02:12:58.145Z,75.80
2023-01-25T02:15:34.569Z,75.39
2023-01-25T02:18:04.844Z,76.22
2023-01-25T02:20:38.295Z,75.62
2023-01-25T02:23:17.863Z,75.90
2023-01-25T02:25:48.505Z,75.74
2023-01-25T02:28:24.290Z,75.09
2023-01-25T02:30:53.591Z,74.55
2023-01-25T02:33:27.342Z,74.95
2023-01-25T02:36:01.344Z,75.59
2023-01-25T02:38:34.275Z,76.14
2023-01-25T02:41:11.792Z,75.55
2023-01-25T02:43:43.237Z,75.08
2023-01-25T02:46:20.496Z,74.65
2023-01-25T02:48:50.048Z,76.91
2023-01-25T02:51:19.143Z,75.97
2023-01-25T02:53:49.269Z,76.18
2023-01-25T02:56:20.497Z,75.03
2023-01-25T02:58:51.306Z,75.20
2023-01-25T03:01:22.484Z,75.70
2023-01-25T03:03:52.113Z,75.52
2023-01-25T03:06:22.282Z,75.58
2023-01-25T03:08:51.677Z,76.34
2023-01-25T03:11:23.269Z,76.64
2023-01-25T03:13:53.974Z,76.84
2023-01-25T03:16:23.640Z,76.56
2023-01-25T03:18:55.881Z,76.56
2023-01-25T03:21:26.893Z,76.44
2023-01-25T03:23:59.111Z,76.86
2023-01-25T03:26:53.169Z,76.88
2023-01-25T03:29:24.388Z,75.99
2023-01-25T03:36:48.964Z,75.54
2023-01-25T03:39:18.169Z,75.59
2023-01-25T03:41:49.117Z,75.40
2023-01-25T03:44:19.193Z,75.58
2023-01-25T03:46:49.739Z,76.04
2023-01-25T03:49:19.668Z,76.44
2023-01-25T03:51:49.261Z,76.75
2023-01-25T03:54:19.539Z,77.52
2023-01-25T03:56:51.152Z,76.61
2023-01-25T03:59:26.644Z,77.08
2023-01-25T04:01:57.541Z,77.52
2023-01-25T04:04:26.755Z,76.64
2023-01-25T04:06:56.566Z,76.23
2023-01-25T04:09:26.837Z,75.55
2023-01-25T04:12:00.716Z,75.05
2023-01-25T04:14:43.583Z,74.84
2023-01-25T04:17:15.735Z,74.48
2023-01-25T04:20:05.752Z,74.78
2023-01-25T04:22:39.873Z,74.86
2023-01-25T04:25:10.166Z,75.28
2023-01-25T04:27:46.082Z,75.48
2023-01-25T04:30:18.476Z,75.11
2023-01-25T04:32:48.936Z,75.85
2023-01-25T04:35:23.100Z,74.98
2023-01-25T04:37:57.053Z,75.24
2023-01-25T04:40:28.905Z,75.79
2023-01-25T04:43:00.009Z,75.19
2023-01-25T04:45:30.966Z,74.77
2023-01-25T04:48:02.594Z,74.82
2023-01-25T04:50:33.217Z,74.75
2023-01-25T04:53:02.822Z,74.97
2023-01-25T04:55:33.854Z,74.97
2023-01-25T04:58:06.167Z,75.16
2023-01-25T05:00:36.004Z,75.83
2023-01-25T05:03:06.190Z,76.53
2023-01-25T05:05:35.750Z,75.77
2023-01-25T05:08:09.617Z,75.34
2023-01-25T05:10:39.241Z,75.59
2023-01-25T05:13:28.846Z,76.27
2023-01-25T05:16:10.047Z,76.84
2023-01-25T05:18:48.364Z,77.06
2023-01-25T05:21:40.190Z,76.17
2023-01-25T05:24:10.861Z,76.27
2023-01-25T05:26:58.177Z,76.51
2023-01-25T05:29:30.139Z,76.90
2023-01-25T05:32:04.433Z,76.88
2023-01-25T05:34:34.917Z,77.32
2023-01-25T05:37:05.165Z,76.34
2023-01-25T05:39:35.344Z,75.78
2023-01-25T05:42:05.375Z,76.31
2023-01-25T05:44:36.404Z,76.21
2023-01-25T05:47:06.119Z,75.86
2023-01-25T05:49:35.650Z,76.81
2023-01-25T05:52:07.398Z,76.25
2023-01-25T05:54:37.811Z,75.68
2023-01-25T05:57:08.399Z,75.31
2023-01-25T05:59:39.263Z,75.71
2023-01-25T06:02:12.364Z,76.20
2023-01-25T06:04:42.923Z,75.97
2023-01-25T06:07:12.642Z,76.22
2023-01-25T06:09:43.361Z,76.04
2023-01-25T06:12:12.542Z,76.04
2023-01-25T06:14:43.332Z,75.53
2023-01-25T06:17:12.469Z,75.00
2023-01-25T06:20:02.345Z,75.99
2023-01-25T06:22:51.387Z,77.02
2023-01-25T06:25:20.791Z,77.08
2023-01-25T06:27:49.888Z,76.59
2023-01-25T06:30:20.965Z,75.92
2023-01-25T06:32:50.589Z,76.48
2023-01-25T06:35:20.043Z,76.92
2023-01-25T06:37:49.388Z,76.87
2023-01-25T06:40:19.083Z,76.14
2023-01-25T06:42:48.123Z,76.64
2023-01-25T06:45:19.261Z,76.15
2023-01-25T06:47:50.627Z,76.46
2023-01-25T06:50:20.055Z,76.50
2023-01-25T06:52:54.057Z,76.27
2023-01-25T06:55:24.396Z,75.85
2023-01-25T06:57:53.482Z,76.68
2023-01-25T07:00:24.551Z,76.57
2023-01-25T07:02:53.730Z,76.52
2023-01-25T07:05:24.172Z,75.29
2023-01-25T07:07:53.399Z,76.23
2023-01-25T07:10:22.854Z,76.18
2023-01-25T07:12:51.999Z,76.40
2023-01-25T07:15:21.342Z,76.29
2023-01-25T07:17:51.858Z,77.27
2023-01-25T07:20:21.321Z,76.37
2023-01-25T07:22:50.394Z,76.49
2023-01-25T07:25:19.766Z,76.29
2023-01-25T07:27:48.958Z,76.62
2023-01-25T07:30:21.729Z,77.39
2023-01-25T07:32:52.264Z,77.53
2023-01-25T07:35:21.764Z,76.54
2023-01-25T07:37:50.806Z,76.03
2023-01-25T07:40:20.432Z,76.78
2023-01-25T07:42:49.685Z,76.81
2023-01-25T07:45:20.759Z,77.44
2023-01-25T07:47:51.431Z,77.26
2023-01-25T07:50:20.885Z,77.34
2023-01-25T07:52:50.106Z,77.78
2023-01-25T07:55:19.557Z,76.86
2023-01-25T07:57:49.175Z,76.81
2023-01-25T08:00:19.416Z,76.59
2023-01-25T08:02:53.703Z,76.07
2023-01-25T08:05:23.101Z,76.60
2023-01-25T08:07:52.353Z,76.30
2023-01-25T08:10:21.944Z,76.35
2023-01-25T08:12:51.014Z,76.50
2023-01-25T08:15:20.426Z,75.98
2023-01-25T08:17:49.628Z,76.51
2023-01-25T08:20:22.144Z,76.21
2023-01-25T08:22:53.066Z,75.92
2023-01-25T08:25:22.721Z,76.37
2023-01-25T08:27:52.288Z,76.57
2023-01-25T08:30:24.439Z,76.27
2023-01-25T08:32:54.218Z,75.72
2023-01-25T08:35:25.185Z,75.06
2023-01-25T08:37:54.450Z,74.98
2023-01-25T08:40:23.939Z,76.14
2023-01-25T08:42:53.056Z,75.40
2023-01-25T08:45:22.708Z,76.00
2023-01-25T08:47:51.875Z,75.31
2023-01-25T08:50:21.449Z,74.66
2023-01-25T08:52:52.794Z,74.63
2023-01-25T08:55:22.260Z,74.09
2023-01-25T08:57:51.422Z,74.73
2023-01-25T09:00:21.946Z,74.64
2023-01-25T09:02:51.061Z,74.63
2023-01-25T09:05:20.605Z,73.74
2023-01-25T09:07:51.194Z,74.26
2023-01-25T09:10:20.897Z,73.76
2023-01-25T09:12:51.229Z,74.50
2023-01-25T09:15:20.838Z,75.60
2023-01-25T09:17:52.683Z,75.36
2023-01-25T09:20:22.346Z,74.74
2023-01-25T09:22:53.227Z,73.83
2023-01-25T09:25:22.648Z,72.52
2023-01-25T09:27:52.520Z,73.01
2023-01-25T09:30:26.359Z,72.41
2023-01-25T09:32:59.948Z,72.29
2023-01-25T09:35:29.731Z,71.69
2023-01-25T09:38:00.357Z,71.01
2023-01-25T09:40:40.359Z,70.31
2023-01-25T09:43:22.256Z,70.86
2023-01-25T09:45:51.628Z,71.10
2023-01-25T09:48:28.653Z,71.48
2023-01-25T09:51:17.995Z,72.40
2023-01-25T09:53:52.636Z,72.21
2023-01-25T09:56:26.216Z,71.23
2023-01-25T09:58:59.801Z,71.65
2023-01-25T10:01:42.995Z,70.90
2023-01-25T10:04:18.133Z,70.88
2023-01-25T10:07:00.197Z,70.24
2023-01-25T10:09:39.781Z,70.73
2023-01-25T10:12:16.823Z,71.29
2023-01-25T10:14:46.026Z,71.35
2023-01-25T10:17:21.872Z,72.56
2023-01-25T10:20:19.546Z,72.73
2023-01-25T10:22:52.861Z,72.10
2023-01-25T10:25:32.620Z,72.44
2023-01-25T10:28:19.718Z,72.57
2023-01-25T10:30:56.571Z,73.77
2023-01-25T10:33:27.918Z,72.03
2023-01-25T10:36:00.231Z,69.61
2023-01-25T10:38:35.067Z,68.81
2023-01-25T10:41:11.167Z,70.78
2023-01-25T10:43:41.026Z,69.11
2023-01-25T10:46:22.920Z,69.19
2023-01-25T10:48:52.377Z,70.41
2023-01-25T10:51:33.394Z,69.26
2023-01-25T10:54:05.571Z,69.21
2023-01-25T10:56:40.361Z,69.21
2023-01-25T10:59:17.434Z,66.96
2023-01-25T11:01:46.707Z,66.02
2023-01-25T11:04:32.898Z,63.58
2023-01-25T11:07:02.975Z,56.33
2023-01-25T11:09:38.562Z,53.87
2023-01-25T11:12:20.558Z,50.28
2023-01-25T11:14:50.975Z,52.19
2023-01-25T11:17:27.259Z,54.57
2023-01-25T11:20:18.991Z,49.65
2023-01-25T11:22:53.455Z,46.12
2023-01-25T11:25:31.333Z,43.43
2023-01-25T11:28:18.948Z,44.07
2023-01-25T11:30:49.225Z,44.57
2023-01-25T11:33:21.114Z,46.14
2023-01-25T11:36:21.194Z,41.75
2023-01-25T11:39:11.549Z,43.70
2023-01-25T11:41:53.664Z,47.07
2023-01-25T11:44:52.254Z,45.46
2023-01-25T11:47:37.627Z,46.64
2023-01-25T11:50:14.941Z,47.02
2023-01-25T11:53:14.123Z,47.35
2023-01-25T11:55:50.686Z,48.11
2023-01-25T11:58:37.936Z,47.44
2023-01-25T12:01:18.595Z,47.21
2023-01-25T12:04:10.416Z,46.62
2023-01-25T12:06:55.399Z,44.06
2023-01-25T12:09:43.949Z,45.68
2023-01-25T12:12:23.599Z,42.28
2023-01-25T12:15:11.414Z,44.78
2023-01-25T12:18:10.197Z,45.58
2023-01-25T12:20:55.980Z,46.08
2023-01-25T12:23:36.356Z,40.72
2023-01-25T12:26:27.137Z,40.67
2023-01-25T12:29:06.811Z,47.46
2023-01-25T12:31:43.867Z,45.94
2023-01-25T12:34:23.330Z,42.57
2023-01-25T12:36:52.953Z,43.09
2023-01-25T12:39:26.822Z,43.58
2023-01-25T12:42:04.519Z,44.73
2023-01-25T12:44:40.157Z,46.36
2023-01-25T12:47:17.148Z,44.08
2023-01-25T12:49:53.725Z,41.43
2023-01-25T12:52:29.174Z,41.70
2023-01-25T12:55:00.975Z,46.10
2023-01-25T12:57:38.501Z,42.25
2023-01-25T13:00:19.747Z,43.44
2023-01-25T13:03:08.023Z,43.60
2023-01-25T13:05:48.424Z,44.38
2023-01-25T13:08:32.549Z,43.80
2023-01-25T13:11:13.325Z,46.33
2023-01-25T13:13:42.913Z,45.31
2023-01-25T13:16:43.206Z,44.72
2023-01-25T13:19:23.567Z,43.61
2023-01-25T13:21:56.745Z,43.82
2023-01-25T13:24:27.592Z,47.32
2023-01-25T13:27:02.587Z,44.45
2023-01-25T13:29:56.910Z,44.94
2023-01-25T13:33:01.314Z,47.21
2023-01-25T13:35:36.929Z,50.37
2023-01-25T13:38:26.860Z,50.02
2023-01-25T13:41:15.428Z,46.08
2023-01-25T13:43:51.116Z,51.83
2023-01-25T13:46:24.289Z,54.46
2023-01-25T13:49:04.643Z,54.17
2023-01-25T13:51:40.256Z,56.21
2023-01-25T13:54:18.644Z,57.83
2023-01-25T13:56:48.087Z,56.41
2023-01-25T13:59:27.593Z,58.09
2023-01-25T14:01:58.425Z,59.41
2023-01-25T14:04:28.483Z,61.72
2023-01-25T14:07:00.560Z,62.32
2023-01-25T14:09:31.911Z,63.42
2023-01-25T14:12:04.152Z,63.21
2023-01-25T14:14:35.038Z,65.94
2023-01-25T14:17:17.780Z,65.80
2023-01-25T14:19:50.767Z,64.49
2023-01-25T14:22:25.233Z,65.86
2023-01-25T14:25:08.522Z,67.48
2023-01-25T14:27:42.673Z,67.17
2023-01-25T14:30:21.740Z,68.15
2023-01-25T14:32:52.839Z,68.22
2023-01-25T14:38:34.153Z,68.76
2023-01-25T14:41:18.184Z,68.62
2023-01-25T14:43:49.630Z,68.09
2023-01-25T14:46:30.358Z,68.18
2023-01-25T14:49:25.450Z,68.47
2023-01-25T14:52:04.477Z,69.00
2023-01-25T14:54:36.494Z,68.55
2023-01-25T14:57:09.268Z,70.55
2023-01-25T14:59:41.027Z,69.57
2023-01-25T15:02:22.527Z,70.09
2023-01-25T15:05:11.108Z,69.81
2023-01-25T15:07:46.598Z,70.21
2023-01-25T15:10:21.916Z,70.28
2023-01-25T15:13:20.464Z,71.02
2023-01-25T15:15:56.681Z,70.37
2023-01-25T15:18:45.098Z,69.73
2023-01-25T15:21:15.913Z,70.45
2023-01-25T15:23:47.095Z,70.25
2023-01-25T15:26:20.708Z,71.24
2023-01-25T15:28:53.085Z,71.01
2023-01-25T15:31:26.168Z,71.81
2023-01-25T15:33:58.945Z,72.08
2023-01-25T15:36:28.683Z,73.00
2023-01-25T15:38:57.837Z,72.99
2023-01-25T15:41:27.244Z,73.63
2023-01-25T15:43:57.744Z,74.22
2023-01-25T15:46:29.907Z,73.96
2023-01-25T15:48:59.103Z,74.33
2023-01-25T15:51:28.764Z,74.41
2023-01-25T15:53:57.834Z,75.39
2023-01-25T15:56:31.880Z,75.97
2023-01-25T15:59:07.369Z,76.30
2023-01-25T16:01:37.011Z,76.60
2023-01-25T16:04:06.533Z,75.28
2023-01-25T16:06:40.766Z,75.62
2023-01-25T16:09:18.836Z,74.73
2023-01-25T16:11:50.681Z,74.96
2023-01-25T16:14:21.598Z,74.56
2023-01-25T16:16:52.977Z,75.21
2023-01-25T16:19:23.995Z,74.71
2023-01-25T16:21:53.456Z,75.10
2023-01-25T16:24:22.706Z,76.33
2023-01-25T16:26:54.995Z,77.10
2023-01-25T16:29:26.244Z,77.03
2023-01-25T16:31:57.294Z,77.06
2023-01-25T16:34:26.706Z,77.28
2023-01-25T16:36:57.676Z,77.86
2023-01-25T16:39:28.383Z,77.56
2023-01-25T16:41:58.004Z,77.81
2023-01-25T16:44:28.623Z,76.97
2023-01-25T16:46:58.075Z,78.37
2023-01-25T16:49:28.218Z,78.39
2023-01-25T16:51:58.059Z,78.22
2023-01-25T16:54:28.186Z,77.04
2023-01-25T16:56:58.984Z,76.78
2023-01-25T16:59:30.604Z,76.84
2023-01-25T17:02:00.345Z,77.85
2023-01-25T17:04:30.346Z,78.39
2023-01-25T17:07:00.051Z,77.95
2023-01-25T17:09:29.818Z,77.88
2023-01-25T17:11:59.293Z,79.36
2023-01-25T17:14:29.875Z,78.18
2023-01-25T17:16:59.246Z,77.15
2023-01-25T17:19:28.305Z,76.78
2023-01-25T17:21:59.183Z,76.23
2023-01-25T17:24:29.149Z,77.93
2023-01-25T17:26:59.436Z,78.15
2023-01-25T17:29:31.021Z,77.87
2023-01-25T17:32:00.660Z,77.83
2023-01-25T17:34:29.797Z,79.23
2023-01-25T17:36:59.310Z,78.44
2023-01-25T17:39:28.514Z,77.26
2023-01-25T17:41:57.949Z,77.10
2023-01-25T17:44:27.043Z,77.04
2023-01-25T17:46:57.844Z,77.47
2023-01-25T17:49:28.644Z,76.65
2023-01-25T17:51:58.083Z,75.78
2023-01-25T17:54:27.996Z,75.86
2023-01-25T17:56:57.382Z,75.86
2023-01-25T17:59:26.553Z,76.11
2023-01-25T18:01:57.980Z,76.13
2023-01-25T18:04:27.169Z,76.30
2023-01-25T18:06:56.615Z,76.52
2023-01-25T18:09:25.877Z,76.65
2023-01-25T18:11:55.234Z,76.27
2023-01-25T18:14:24.342Z,76.10
2023-01-25T18:16:53.938Z,76.20
2023-01-25T18:19:24.514Z,76.04
2023-01-25T18:21:53.894Z,75.74
2023-01-25T18:24:27.371Z,75.54
2023-01-25T18:27:02.217Z,75.78
2023-01-25T18:29:46.588Z,76.57
2023-01-25T18:32:16.668Z,76.02
2023-01-25T18:34:48.290Z,77.42
2023-01-25T18:37:21.919Z,77.72
2023-01-25T18:39:52.896Z,77.34
2023-01-25T18:42:24.230Z,77.21
2023-01-25T18:44:53.448Z,77.15
2023-01-25T18:47:24.009Z,77.82
2023-01-25T18:49:54.996Z,77.72
2023-01-25T18:52:25.743Z,77.75
2023-01-25T18:54:54.981Z,78.02
2023-01-25T18:57:25.084Z,77.56
2023-01-25T18:59:54.496Z,76.92
2023-01-25T19:02:24.062Z,77.65
2023-01-25T19:04:55.533Z,77.99
2023-01-25T19:07:24.903Z,77.77
2023-01-25T19:09:53.942Z,78.00
2023-01-25T19:12:23.347Z,78.39
2023-01-25T19:14:52.482Z,77.68
2023-01-25T19:17:21.939Z,77.23
2023-01-25T19:19:51.163Z,76.52
2023-01-25T19:22:21.976Z,77.50
2023-01-25T19:24:51.039Z,77.19
2023-01-25T19:27:20.632Z,77.02
2023-01-25T19:29:49.827Z,77.33
2023-01-25T19:32:19.240Z,78.23
2023-01-25T19:34:48.495Z,77.80
2023-01-25T19:37:17.846Z,77.35
2023-01-25T19:39:49.109Z,77.85
2023-01-25T19:42:18.835Z,78.29
2023-01-25T19:44:49.216Z,77.99
2023-01-25T19:47:18.621Z,78.15
2023-01-25T19:49:47.761Z,77.43
2023-01-25T19:52:17.415Z,78.84
2023-01-25T19:54:48.002Z,78.27
2023-01-25T19:57:17.593Z,78.34
2023-01-25T19:59:46.795Z,77.50
2023-01-25T20:02:16.123Z,76.89
2023-01-25T20:04:45.353Z,77.29
2023-01-25T20:07:14.735Z,77.96
2023-01-25T20:09:43.915Z,77.89
2023-01-25T20:12:14.831Z,77.43
2023-01-25T20:14:44.457Z,77.71
2023-01-25T20:17:14.279Z,77.51
2023-01-25T20:19:44.420Z,77.33
2023-01-25T20:22:13.943Z,76.91
2023-01-25T20:24:43.194Z,78.01
2023-01-25T20:27:14.379Z,77.91
2023-01-25T20:29:44.256Z,78.18
2023-01-25T20:32:30.619Z,78.21
2023-01-25T20:35:03.590Z,78.90
2023-01-25T20:37:33.034Z,77.68
2023-01-25T20:40:02.215Z,78.07
2023-01-25T20:42:33.022Z,77.98
2023-01-25T20:45:02.174Z,78.31
2023-01-25T20:47:31.536Z,78.35
2023-01-25T20:50:00.668Z,77.64
2023-01-25T20:52:30.151Z,76.73
2023-01-25T20:54:59.526Z,77.11
2023-01-25T20:57:29.010Z,77.26
2023-01-25T20:59:59.922Z,77.76
2023-01-25T21:02:29.291Z,77.40
2023-01-25T21:04:58.468Z,78.01
2023-01-25T21:07:27.853Z,77.82
2023-01-25T21:09:57.002Z,76.95
2023-01-25T21:12:26.512Z,77.60
2023-01-25T21:14:56.584Z,77.33
2023-01-25T21:17:27.414Z,78.18
2023-01-25T21:19:58.063Z,77.38
2023-01-25T21:22:29.978Z,77.92
2023-01-25T21:24:59.131Z,77.65
2023-01-25T21:27:29.711Z,76.89
2023-01-25T21:30:00.132Z,76.78
2023-01-25T21:32:31.230Z,76.80
2023-01-25T21:35:00.393Z,77.07
2023-01-25T21:37:30.975Z,77.29
2023-01-25T21:40:00.120Z,77.13
2023-01-25T21:42:32.175Z,77.21
2023-01-25T21:45:19.008Z,77.60
2023-01-25T21:47:49.866Z,77.59
2023-01-25T21:50:36.784Z,76.97
2023-01-25T21:53:06.432Z,77.22
2023-01-25T21:55:35.611Z,77.74
2023-01-25T21:58:05.084Z,78.10
2023-01-25T22:00:35.972Z,77.43
2023-01-25T22:03:06.891Z,77.33
2023-01-25T22:05:35.937Z,76.83
2023-01-25T22:08:05.594Z,76.86
2023-01-25T22:10:34.793Z,76.81
2023-01-25T22:13:04.221Z,76.03
2023-01-25T22:15:34.104Z,75.60
2023-01-25T22:18:03.581Z,75.18
2023-01-25T22:20:34.074Z,76.47
2023-01-25T22:23:03.523Z,75.86
2023-01-25T22:25:32.686Z,75.77
2023-01-25T22:28:07.452Z,76.11
2023-01-25T22:30:36.712Z,76.37
2023-01-25T22:33:07.329Z,75.64
2023-01-25T22:35:37.793Z,76.57
2023-01-25T22:38:07.207Z,76.51
2023-01-25T22:40:36.380Z,76.62
2023-01-25T22:43:05.935Z,76.03
2023-01-25T22:45:35.056Z,76.38
2023-01-25T22:48:04.536Z,76.30
2023-01-25T22:50:33.690Z,77.04
2023-01-25T22:53:04.503Z,76.26
2023-01-25T22:55:33.593Z,75.81
2023-01-25T22:58:03.004Z,76.16
2023-01-25T23:00:32.146Z,75.91
2023-01-25T23:03:01.563Z,75.98
2023-01-25T23:05:30.990Z,75.72
2023-01-25T23:08:00.486Z,75.28
2023-01-25T23:10:31.010Z,74.68
2023-01-25T23:13:00.497Z,74.86
2023-01-25T23:15:29.747Z,75.79
2023-01-25T23:18:16.452Z,76.01
2023-01-25T23:20:45.658Z,75.51
2023-01-25T23:23:15.063Z,75.10
2023-01-25T23:25:47.194Z,74.76
2023-01-25T23:28:16.675Z,75.16
2023-01-25T23:30:45.870Z,75.19
2023-01-25T23:33:15.292Z,75.75
2023-01-25T23:35:44.320Z,75.12
2023-01-25T23:38:15.292Z,74.44
2023-01-25T23:40:45.790Z,74.33
2023-01-25T23:43:15.391Z,74.32
2023-01-25T23:45:45.631Z,74.57
2023-01-25T23:48:15.049Z,74.43
2023-01-25T23:50:44.174Z,74.74
2023-01-25T23:53:13.533Z,74.87
2023-01-25T23:55:51.949Z,74.96
2023-01-25T23:58:21.983Z,74.88
